createdAt,value
2023-02-11T00:02:21.293Z,99137.20
2023-02-11T00:04:50.805Z,99129.27
2023-02-11T00:07:20.332Z,99127.66
2023-02-11T00:09:50.945Z,99121.05
2023-02-11T00:12:21.480Z,99120.29
2023-02-11T00:14:51.416Z,99115.64
2023-02-11T00:17:20.640Z,99106.72
2023-02-11T00:19:51.618Z,99109.92
2023-02-11T00:22:20.761Z,99121.14
2023-02-11T00:24:50.195Z,99119.35
2023-02-11T00:27:19.575Z,99115.94
2023-02-11T00:29:51.676Z,99108.86
2023-02-11T00:32:20.945Z,99100.39
2023-02-11T00:34:53.045Z,99091.06
2023-02-11T00:37:23.046Z,99088.90
2023-02-11T00:39:52.598Z,99092.29
2023-02-11T00:42:22.052Z,99093.79
2023-02-11T00:44:51.310Z,99086.40
2023-02-11T00:47:20.634Z,99085.27
2023-02-11T00:49:50.159Z,99081.67
2023-02-11T00:52:19.590Z,99081.30
2023-02-11T00:54:49.101Z,99080.79
2023-02-11T00:57:19.081Z,99071.20
2023-02-11T00:59:48.491Z,99060.23
2023-02-11T01:02:18.370Z,99060.75
2023-02-11T01:04:48.285Z,99062.45
2023-02-11T01:07:17.887Z,99056.20
2023-02-11T01:09:47.417Z,99045.77
2023-02-11T01:12:17.113Z,99042.61
2023-02-11T01:14:46.624Z,99040.48
2023-02-11T01:17:18.291Z,99032.71
2023-02-11T01:19:48.219Z,99030.48
2023-02-11T01:22:18.085Z,99023.56
2023-02-11T01:24:55.784Z,99024.25
2023-02-11T01:27:25.155Z,99019.85
2023-02-11T01:29:55.458Z,99013.67
2023-02-11T01:32:25.268Z,99004.06
2023-02-11T01:34:56.607Z,98984.08
2023-02-11T01:37:26.369Z,98960.44
2023-02-11T01:39:56.156Z,98951.96
2023-02-11T01:42:25.586Z,98949.27
2023-02-11T01:44:55.690Z,98949.52
2023-02-11T01:47:25.038Z,98949.80
2023-02-11T01:49:57.961Z,98963.05
2023-02-11T01:52:31.771Z,98964.99
2023-02-11T01:55:22.036Z,98965.83
2023-02-11T01:57:56.658Z,98966.84
2023-02-11T02:00:29.436Z,98973.02
2023-02-11T02:03:04.369Z,98980.98
2023-02-11T02:05:40.714Z,98977.94
2023-02-11T02:08:15.442Z,98982.91
2023-02-11T02:10:47.607Z,98989.23
2023-02-11T02:13:19.996Z,98993.10
2023-02-11T02:15:52.343Z,98987.26
2023-02-11T02:18:37.574Z,98989.38
2023-02-11T02:21:37.230Z,98987.65
2023-02-11T02:24:30.534Z,98986.15
2023-02-11T02:27:26.153Z,98973.31
2023-02-11T02:30:24.280Z,98958.80
2023-02-11T02:33:16.773Z,98952.67
2023-02-11T02:36:02.584Z,98938.18
2023-02-11T02:38:38.102Z,98925.16
2023-02-11T02:41:11.530Z,98917.45
2023-02-11T02:43:43.972Z,98913.54
2023-02-11T02:46:18.589Z,98908.09
2023-02-11T02:48:49.756Z,98895.02
2023-02-11T02:51:36.894Z,98884.77
2023-02-11T02:54:23.715Z,98880.92
2023-02-11T02:56:57.883Z,98870.61
2023-02-11T02:59:44.247Z,98865.59
2023-02-11T03:02:21.756Z,98863.52
2023-02-11T03:04:58.297Z,98854.11
2023-02-11T03:07:38.184Z,98841.84
2023-02-11T03:10:14.196Z,98827.66
2023-02-11T03:12:44.807Z,98814.27
2023-02-11T03:15:17.554Z,98818.59
2023-02-11T03:17:51.784Z,98806.95
2023-02-11T03:20:23.727Z,98805.12
2023-02-11T03:22:57.673Z,98807.06
2023-02-11T03:25:32.086Z,98803.11
2023-02-11T03:28:09.342Z,98795.64
2023-02-11T03:30:44.363Z,98792.04
2023-02-11T03:33:19.686Z,98795.43
2023-02-11T03:35:54.381Z,98805.95
2023-02-11T03:38:26.407Z,98813.41
2023-02-11T03:40:58.698Z,98809.39
2023-02-11T03:43:33.294Z,98809.17
2023-02-11T03:46:04.727Z,98808.08
2023-02-11T03:48:39.115Z,98803.05
2023-02-11T03:51:10.562Z,98800.29
2023-02-11T03:53:43.277Z,98800.70
2023-02-11T03:56:17.969Z,98799.73
2023-02-11T03:58:48.157Z,98793.59
2023-02-11T04:01:18.122Z,98791.18
2023-02-11T04:03:49.914Z,98783.36
2023-02-11T04:06:19.213Z,98776.39
2023-02-11T04:08:49.151Z,98773.16
2023-02-11T04:11:18.804Z,98757.55
2023-02-11T04:13:48.176Z,98743.11
2023-02-11T04:16:18.180Z,98726.86
2023-02-11T04:18:47.905Z,98715.33
2023-02-11T04:21:19.911Z,98709.03
2023-02-11T04:23:49.460Z,98707.73
2023-02-11T04:26:18.990Z,98707.27
2023-02-11T04:28:48.375Z,98710.17
2023-02-11T04:31:18.260Z,98715.10
2023-02-11T04:33:49.637Z,98714.31
2023-02-11T04:36:19.196Z,98711.23
2023-02-11T04:38:48.953Z,98708.98
2023-02-11T04:41:19.250Z,98716.86
2023-02-11T04:43:48.775Z,98716.93
2023-02-11T04:46:21.442Z,98725.27
2023-02-11T04:48:51.038Z,98733.73
2023-02-11T04:51:20.297Z,98740.27
2023-02-11T04:53:49.645Z,98736.08
2023-02-11T04:56:19.153Z,98735.81
2023-02-11T04:58:48.650Z,98729.27
2023-02-11T05:01:18.685Z,98730.06
2023-02-11T05:03:48.178Z,98727.11
2023-02-11T05:06:17.817Z,98722.36
2023-02-11T05:08:47.286Z,98722.27
2023-02-11T05:11:18.710Z,98723.38
2023-02-11T05:13:48.724Z,98727.42
2023-02-11T05:16:18.665Z,98728.73
2023-02-11T05:18:52.340Z,98725.16
2023-02-11T05:21:22.270Z,98724.55
2023-02-11T05:23:52.125Z,98728.86
2023-02-11T05:26:21.985Z,98734.95
2023-02-11T05:28:51.375Z,98737.38
2023-02-11T05:31:21.021Z,98735.00
2023-02-11T05:33:50.959Z,98736.16
2023-02-11T05:36:20.929Z,98720.29
2023-02-11T05:38:50.856Z,98693.45
2023-02-11T05:41:20.457Z,98675.73
2023-02-11T05:43:51.405Z,98662.72
2023-02-11T05:46:21.010Z,98637.86
2023-02-11T05:48:50.855Z,98612.65
2023-02-11T05:51:20.397Z,98607.76
2023-02-11T05:53:49.866Z,98585.84
2023-02-11T05:56:19.224Z,98571.09
2023-02-11T05:58:48.604Z,98564.04
2023-02-11T06:01:19.051Z,98564.06
2023-02-11T06:03:49.669Z,98572.97
2023-02-11T06:06:19.196Z,98584.64
2023-02-11T06:08:48.825Z,98590.45
2023-02-11T06:11:19.863Z,98598.12
2023-02-11T06:25:21.788Z,98606.27
2023-02-11T06:27:53.799Z,98608.04
2023-02-11T06:30:26.527Z,98614.30
2023-02-11T06:32:58.779Z,98623.08
2023-02-11T06:35:31.079Z,98632.42
2023-02-11T06:38:03.292Z,98628.65
2023-02-11T06:40:35.384Z,98633.05
2023-02-11T06:43:08.393Z,98641.01
2023-02-11T06:45:40.356Z,98644.67
2023-02-11T06:48:12.897Z,98651.17
2023-02-11T06:50:45.958Z,98650.73
2023-02-11T06:53:19.008Z,98642.88
2023-02-11T06:55:51.262Z,98625.84
2023-02-11T06:58:23.587Z,98620.75
2023-02-11T07:00:55.645Z,98622.93
2023-02-11T07:03:28.206Z,98630.78
2023-02-11T07:06:00.238Z,98638.12
2023-02-11T07:08:32.522Z,98625.27
2023-02-11T07:11:10.718Z,98621.85
2023-02-11T07:13:43.234Z,98620.80
2023-02-11T07:16:18.467Z,98614.56
2023-02-11T07:18:51.577Z,98612.26
2023-02-11T07:21:24.469Z,98605.85
2023-02-11T07:24:00.198Z,98591.19
2023-02-11T07:26:32.371Z,98582.69
2023-02-11T07:29:05.015Z,98581.07
2023-02-11T07:31:38.674Z,98577.77
2023-02-11T07:34:09.196Z,98577.96
2023-02-11T07:36:43.864Z,98576.44
2023-02-11T07:39:15.917Z,98580.44
2023-02-11T07:41:49.503Z,98576.30
2023-02-11T07:44:23.397Z,98582.91
2023-02-11T07:46:57.452Z,98580.05
2023-02-11T07:49:29.788Z,98577.68
2023-02-11T07:52:02.165Z,98577.08
2023-02-11T07:54:34.793Z,98579.20
2023-02-11T07:57:07.526Z,98578.55
2023-02-11T07:59:39.855Z,98571.28
2023-02-11T08:02:12.553Z,98558.78
2023-02-11T08:04:47.864Z,98554.96
2023-02-11T08:07:22.116Z,98557.15
2023-02-11T08:09:55.852Z,98555.69
2023-02-11T08:12:26.103Z,98564.79
2023-02-11T08:14:58.214Z,98569.17
2023-02-11T08:17:30.393Z,98574.29
2023-02-11T08:20:02.585Z,98569.77
2023-02-11T08:22:36.710Z,98561.53
2023-02-11T08:25:09.663Z,98562.02
2023-02-11T08:27:41.780Z,98560.80
2023-02-11T08:30:15.929Z,98558.59
2023-02-11T08:32:48.235Z,98556.42
2023-02-11T08:35:23.803Z,98559.08
2023-02-11T08:37:56.257Z,98557.80
2023-02-11T08:40:28.529Z,98552.17
2023-02-11T08:43:00.539Z,98548.50
2023-02-11T08:45:33.602Z,98546.46
2023-02-11T08:48:06.633Z,98543.66
2023-02-11T08:50:43.509Z,98541.48
2023-02-11T08:53:17.600Z,98543.10
2023-02-11T08:55:54.626Z,98543.25
2023-02-11T08:58:27.785Z,98543.96
2023-02-11T09:01:03.964Z,98542.06
2023-02-11T09:03:36.373Z,98536.13
2023-02-11T09:06:12.661Z,98528.84
2023-02-11T09:08:47.749Z,98536.02
2023-02-11T09:11:24.119Z,98541.07
2023-02-11T09:13:56.491Z,98537.99
2023-02-11T09:16:30.415Z,98536.04
2023-02-11T09:19:04.872Z,98540.48
2023-02-11T09:21:38.054Z,98546.70
2023-02-11T09:24:10.448Z,98554.16
2023-02-11T09:26:44.835Z,98560.42
2023-02-11T09:29:17.040Z,98561.08
2023-02-11T09:31:50.920Z,98565.29
2023-02-11T09:34:23.630Z,98562.80
2023-02-11T09:36:56.678Z,98562.65
2023-02-11T09:39:29.607Z,98565.81
2023-02-11T09:42:19.546Z,98568.80
2023-02-11T09:44:54.370Z,98563.61
2023-02-11T09:47:31.903Z,98562.30
2023-02-11T09:50:08.933Z,98556.79
2023-02-11T09:52:46.147Z,98550.29
2023-02-11T09:55:23.334Z,98544.27
2023-02-11T09:57:55.754Z,98538.10
2023-02-11T10:00:33.317Z,98532.95
2023-02-11T10:03:28.608Z,98523.98
2023-02-11T10:06:24.717Z,98521.16
2023-02-11T10:09:05.384Z,98523.85
2023-02-11T10:11:43.686Z,98525.50
2023-02-11T10:14:32.972Z,98524.29
2023-02-11T10:17:14.919Z,98521.92
2023-02-11T10:20:03.412Z,98511.00
2023-02-11T10:22:39.698Z,98511.41
2023-02-11T10:25:22.767Z,98495.99
2023-02-11T10:27:56.874Z,98482.66
2023-02-11T10:30:34.726Z,98472.28
2023-02-11T10:33:20.642Z,98461.19
2023-02-11T10:35:53.022Z,98461.84
2023-02-11T10:38:29.373Z,98448.14
2023-02-11T10:41:01.834Z,98436.32
2023-02-11T10:43:36.320Z,98422.81
2023-02-11T10:46:16.824Z,98411.13
2023-02-11T10:48:51.846Z,98394.55
2023-02-11T10:51:26.531Z,98387.19
2023-02-11T10:54:21.545Z,98372.83
2023-02-11T10:57:00.526Z,98373.20
2023-02-11T10:59:38.711Z,98370.70
2023-02-11T11:02:26.363Z,98359.55
2023-02-11T11:05:02.917Z,98369.20
2023-02-11T11:07:36.364Z,98365.27
2023-02-11T11:10:27.813Z,98368.83
2023-02-11T11:13:02.719Z,98376.41
2023-02-11T11:15:35.462Z,98385.82
2023-02-11T11:18:23.316Z,98384.67
2023-02-11T11:21:02.884Z,98375.35
2023-02-11T11:23:37.132Z,98379.58
2023-02-11T11:26:13.111Z,98378.54
2023-02-11T11:28:54.838Z,98378.67
2023-02-11T11:31:30.373Z,98373.53
2023-02-11T11:34:08.323Z,98367.10
2023-02-11T11:36:41.616Z,98375.29
2023-02-11T11:39:23.858Z,98384.86
2023-02-11T11:42:01.025Z,98381.55
2023-02-11T11:44:38.403Z,98379.79
2023-02-11T11:47:31.221Z,98379.60
2023-02-11T11:50:25.041Z,98382.42
2023-02-11T11:52:58.266Z,98370.92
2023-02-11T11:55:36.801Z,98366.98
2023-02-11T11:58:15.240Z,98356.59
2023-02-11T12:01:02.532Z,98354.60
2023-02-11T12:04:03.028Z,98359.13
2023-02-11T12:06:42.958Z,98364.00
2023-02-11T12:09:27.429Z,98366.09
2023-02-11T12:12:12.189Z,98369.11
2023-02-11T12:14:51.611Z,98366.02
2023-02-11T12:17:39.087Z,98357.72
2023-02-11T12:20:26.472Z,98342.95
2023-02-11T12:23:16.140Z,98342.66
2023-02-11T12:25:55.039Z,98341.11
2023-02-11T12:28:38.972Z,98340.72
2023-02-11T12:31:26.127Z,98344.92
2023-02-11T12:37:29.077Z,98339.64
2023-02-11T12:40:15.197Z,98325.80
2023-02-11T12:43:20.272Z,98331.45
2023-02-11T12:46:19.391Z,98337.19
2023-02-11T12:49:07.052Z,98337.03
2023-02-11T12:51:47.871Z,98327.04
2023-02-11T12:54:26.138Z,98320.05
2023-02-11T12:57:04.553Z,98298.85
2023-02-11T12:59:56.858Z,98299.05
2023-02-11T13:02:36.669Z,98312.50
2023-02-11T13:05:24.967Z,98315.70
2023-02-11T13:08:03.546Z,98310.09
2023-02-11T13:10:38.524Z,98300.42
2023-02-11T13:13:20.167Z,98294.95
2023-02-11T13:15:57.544Z,98272.11
2023-02-11T13:18:48.488Z,98250.65
2023-02-11T13:21:35.777Z,98239.52
2023-02-11T13:24:17.611Z,98229.42
2023-02-11T13:26:59.517Z,98239.23
2023-02-11T13:29:40.526Z,98252.52
2023-02-11T13:32:16.537Z,98264.31
2023-02-11T13:35:00.495Z,98272.73
2023-02-11T13:37:39.390Z,98271.73
2023-02-11T13:40:26.412Z,98281.80
2023-02-11T13:43:01.215Z,98277.63
2023-02-11T13:45:36.265Z,98278.74
2023-02-11T13:48:21.173Z,98274.41
2023-02-11T13:50:55.767Z,98270.35
2023-02-11T13:53:32.796Z,98278.02
2023-02-11T13:56:12.235Z,98300.73
2023-02-11T13:58:51.417Z,98302.08
2023-02-11T14:01:44.312Z,98312.52
2023-02-11T14:04:47.975Z,98322.66
2023-02-11T14:07:49.906Z,98330.31
2023-02-11T14:10:53.204Z,98320.73
2023-02-11T14:13:28.763Z,98325.45
2023-02-11T14:16:22.688Z,98328.47
2023-02-11T14:19:04.507Z,98330.50
2023-02-11T14:21:43.984Z,98327.96
2023-02-11T14:24:49.374Z,98327.77
2023-02-11T14:27:44.191Z,98324.27
2023-02-11T14:30:43.082Z,98310.84
2023-02-11T14:33:30.821Z,98309.97
2023-02-11T14:36:11.852Z,98311.86
2023-02-11T14:39:04.103Z,98313.70
2023-02-11T14:41:47.035Z,98326.26
2023-02-11T14:44:23.705Z,98336.95
2023-02-11T14:47:01.817Z,98334.15
2023-02-11T14:49:40.016Z,98327.45
2023-02-11T14:52:25.247Z,98326.92
2023-02-11T14:55:08.778Z,98329.08
2023-02-11T14:57:45.167Z,98325.00
2023-02-11T15:00:23.739Z,98327.38
2023-02-11T15:02:56.594Z,98317.13
2023-02-11T15:05:30.588Z,98321.52
2023-02-11T15:08:06.519Z,98328.46
2023-02-11T15:10:44.990Z,98328.42
2023-02-11T15:13:23.766Z,98329.57
2023-02-11T15:16:00.132Z,98331.20
2023-02-11T15:18:39.154Z,98322.46
2023-02-11T15:21:12.048Z,98321.44
2023-02-11T15:23:56.466Z,98324.27
2023-02-11T15:26:29.182Z,98326.64
2023-02-11T15:29:01.869Z,98325.58
2023-02-11T15:31:35.251Z,98332.02
2023-02-11T15:34:13.565Z,98338.14
2023-02-11T15:36:45.787Z,98333.86
2023-02-11T15:39:32.263Z,98330.40
2023-02-11T15:42:21.415Z,98322.96
2023-02-11T15:45:08.439Z,98329.10
2023-02-11T15:47:42.084Z,98331.70
2023-02-11T15:50:22.645Z,98340.98
2023-02-11T15:52:57.647Z,98339.90
2023-02-11T15:55:32.117Z,98335.93
2023-02-11T15:58:04.881Z,98330.65
2023-02-11T16:00:39.916Z,98347.20
2023-02-11T16:03:24.250Z,98350.30
2023-02-11T16:05:56.939Z,98349.60
2023-02-11T16:08:33.030Z,98348.60
2023-02-11T16:11:09.322Z,98344.34
2023-02-11T16:13:49.712Z,98346.20
2023-02-11T16:16:25.274Z,98351.04
2023-02-11T16:19:05.275Z,98347.81
2023-02-11T16:21:43.043Z,98344.78
2023-02-11T16:24:24.067Z,98348.85
2023-02-11T16:26:59.114Z,98354.86
2023-02-11T16:29:33.585Z,98352.80
2023-02-11T16:32:22.052Z,98352.46
2023-02-11T16:34:55.383Z,98357.23
2023-02-11T16:37:32.578Z,98360.86
2023-02-11T16:40:06.438Z,98359.88
2023-02-11T16:42:38.850Z,98361.62
2023-02-11T16:45:14.414Z,98357.95
2023-02-11T16:47:47.079Z,98362.76
2023-02-11T16:50:26.632Z,98369.43
2023-02-11T16:53:02.786Z,98369.59
2023-02-11T16:55:35.570Z,98377.09
2023-02-11T16:58:08.646Z,98374.52
2023-02-11T17:00:44.992Z,98379.14
2023-02-11T17:03:23.363Z,98376.23
2023-02-11T17:06:05.344Z,98380.33
2023-02-11T17:08:38.822Z,98388.41
2023-02-11T17:11:11.699Z,98389.16
2023-02-11T17:13:49.931Z,98389.02
2023-02-11T17:16:25.630Z,98382.35
2023-02-11T17:19:00.451Z,98381.87
2023-02-11T17:21:33.681Z,98391.65
2023-02-11T17:24:05.961Z,98396.66
2023-02-11T17:26:38.361Z,98396.46
2023-02-11T17:29:11.489Z,98392.28
2023-02-11T17:31:44.198Z,98388.16
2023-02-11T17:34:16.546Z,98397.93
2023-02-11T17:36:57.002Z,98398.94
2023-02-11T17:39:35.212Z,98397.90
2023-02-11T17:42:17.352Z,98397.90
2023-02-11T17:44:54.173Z,98402.61
2023-02-11T17:47:48.301Z,98399.55
2023-02-11T17:50:30.921Z,98401.73
2023-02-11T17:53:28.628Z,98408.48
2023-02-11T17:56:06.981Z,98407.64
2023-02-11T17:58:53.559Z,98409.14
2023-02-11T18:01:32.515Z,98409.98
2023-02-11T18:04:21.233Z,98411.13
2023-02-11T18:07:00.806Z,98412.81
2023-02-11T18:09:44.814Z,98410.06
2023-02-11T18:12:28.630Z,98415.98
2023-02-11T18:15:07.212Z,98413.71
2023-02-11T18:17:52.354Z,98416.05
2023-02-11T18:20:30.194Z,98415.66
2023-02-11T18:23:07.886Z,98415.09
2023-02-11T18:25:48.291Z,98417.81
2023-02-11T18:28:29.400Z,98419.70
2023-02-11T18:31:08.874Z,98418.38
2023-02-11T18:33:46.645Z,98424.03
2023-02-11T18:36:25.409Z,98428.47
2023-02-11T18:39:07.752Z,98430.67
2023-02-11T18:41:47.969Z,98437.37
2023-02-11T18:44:29.378Z,98435.18
2023-02-11T18:47:09.931Z,98438.14
2023-02-11T18:49:49.686Z,98437.98
2023-02-11T18:52:26.808Z,98438.13
2023-02-11T18:55:06.092Z,98437.59
2023-02-11T18:57:47.282Z,98437.66
2023-02-11T19:00:28.919Z,98440.59
2023-02-11T19:03:07.221Z,98445.81
2023-02-11T19:05:54.647Z,98448.25
2023-02-11T19:08:32.476Z,98447.27
2023-02-11T19:11:13.627Z,98444.20
2023-02-11T19:13:53.340Z,98442.81
2023-02-11T19:16:33.236Z,98441.85
2023-02-11T19:19:12.708Z,98443.41
2023-02-11T19:21:51.695Z,98446.35
2023-02-11T19:24:31.468Z,98444.61
2023-02-11T19:27:09.811Z,98447.38
2023-02-11T19:29:47.608Z,98446.89
2023-02-11T19:32:24.907Z,98443.45
2023-02-11T19:35:01.843Z,98446.03
2023-02-11T19:37:40.455Z,98446.75
2023-02-11T19:40:15.856Z,98452.10
2023-02-11T19:42:51.287Z,98455.91
2023-02-11T19:45:32.513Z,98455.60
2023-02-11T19:48:22.043Z,98456.81
2023-02-11T19:50:56.555Z,98463.34
2023-02-11T19:53:28.845Z,98464.55
2023-02-11T19:56:04.155Z,98463.26
2023-02-11T19:58:36.754Z,98461.55
2023-02-11T20:01:12.387Z,98458.83
2023-02-11T20:03:45.417Z,98460.18
2023-02-11T20:06:20.086Z,98461.45
2023-02-11T20:08:58.553Z,98464.20
2023-02-11T20:11:33.504Z,98464.04
2023-02-11T20:14:06.993Z,98465.08
2023-02-11T20:16:48.203Z,98467.48
2023-02-11T20:19:23.492Z,98466.98
2023-02-11T20:21:56.813Z,98466.85
2023-02-11T20:24:29.682Z,98469.42
2023-02-11T20:27:03.480Z,98474.09
2023-02-11T20:29:35.711Z,98475.49
2023-02-11T20:32:12.896Z,98474.60
2023-02-11T20:34:46.373Z,98479.41
2023-02-11T20:37:18.939Z,98476.42
2023-02-11T20:39:55.722Z,98482.98
2023-02-11T20:42:29.420Z,98479.91
2023-02-11T20:45:01.871Z,98486.98
2023-02-11T20:47:34.280Z,98490.67
2023-02-11T20:50:08.721Z,98490.20
2023-02-11T20:52:41.624Z,98496.23
2023-02-11T20:55:14.129Z,98500.88
2023-02-11T20:57:46.862Z,98500.88
2023-02-11T21:00:26.763Z,98503.13
2023-02-11T21:03:00.836Z,98503.02
2023-02-11T21:05:31.986Z,98500.96
2023-02-11T21:08:04.302Z,98502.31
2023-02-11T21:10:39.405Z,98502.36
2023-02-11T21:13:12.120Z,98511.45
2023-02-11T21:15:44.862Z,98514.23
2023-02-11T21:18:17.691Z,98516.19
2023-02-11T21:20:52.273Z,98521.30
2023-02-11T21:23:24.936Z,98518.56
2023-02-11T21:25:58.262Z,98518.08
2023-02-11T21:28:30.417Z,98518.44
2023-02-11T21:31:03.235Z,98521.84
2023-02-11T21:33:35.902Z,98522.02
2023-02-11T21:36:09.293Z,98526.14
2023-02-11T21:38:41.224Z,98534.89
2023-02-11T21:41:13.777Z,98533.53
2023-02-11T21:43:46.117Z,98534.27
2023-02-11T21:46:23.511Z,98536.09
2023-02-11T21:48:55.578Z,98532.83
2023-02-11T21:51:28.637Z,98531.18
2023-02-11T21:54:03.364Z,98534.77
2023-02-11T21:56:37.332Z,98539.69
2023-02-11T21:59:09.458Z,98542.27
2023-02-11T22:01:41.961Z,98549.10
2023-02-11T22:04:14.600Z,98555.58
2023-02-11T22:06:46.850Z,98561.41
2023-02-11T22:09:19.312Z,98564.12
2023-02-11T22:11:51.383Z,98569.30
2023-02-11T22:14:23.881Z,98571.04
2023-02-11T22:16:56.181Z,98574.98
2023-02-11T22:19:28.201Z,98574.64
2023-02-11T22:22:00.342Z,98578.89
2023-02-11T22:24:32.712Z,98580.64
2023-02-11T22:27:04.770Z,98585.64
2023-02-11T22:29:38.898Z,98585.37
2023-02-11T22:32:11.744Z,98588.89
2023-02-11T22:34:44.294Z,98592.31
2023-02-11T22:37:16.553Z,98598.30
2023-02-11T22:39:48.541Z,98603.92
2023-02-11T22:42:21.100Z,98600.50
2023-02-11T22:44:53.231Z,98602.52
2023-02-11T22:47:25.400Z,98604.99
2023-02-11T22:50:00.340Z,98604.86
2023-02-11T22:52:32.730Z,98606.23
2023-02-11T22:55:05.068Z,98614.10
2023-02-11T22:57:37.254Z,98614.33
2023-02-11T23:00:12.590Z,98617.23
2023-02-11T23:02:46.687Z,98616.73
2023-02-11T23:05:20.150Z,98614.48
2023-02-11T23:07:54.186Z,98623.88
2023-02-11T23:10:26.380Z,98623.20
2023-02-11T23:12:58.694Z,98621.34
2023-02-11T23:15:30.900Z,98630.06
2023-02-11T23:18:03.100Z,98624.95
2023-02-11T23:20:37.480Z,98624.92
2023-02-11T23:23:10.112Z,98625.79
2023-02-11T23:25:46.523Z,98626.20
2023-02-11T23:28:19.091Z,98630.67
2023-02-11T23:30:51.470Z,98629.92
2023-02-11T23:33:24.095Z,98628.40
2023-02-11T23:35:56.741Z,98626.88
2023-02-11T23:38:29.031Z,98629.98
2023-02-11T23:41:01.424Z,98632.42
2023-02-11T23:43:34.093Z,98631.46
2023-02-11T23:46:06.894Z,98631.84
2023-02-11T23:48:40.671Z,98637.98
2023-02-11T23:51:11.407Z,98636.63
2023-02-11T23:53:46.026Z,98634.05
2023-02-11T23:56:20.313Z,98632.37
2023-02-11T23:58:54.353Z,98633.19
